sensor_id;sensor_type;location;lat;lon;timestamp;temperature;humidity
38241;DHT22;24037;49.536;8.500;2023-03-14T00:02:00;10.50;99.90
38241;DHT22;24037;49.536;8.500;2023-03-14T00:04:26;10.60;99.90
38241;DHT22;24037;49.536;8.500;2023-03-14T00:06:52;10.50;99.90
38241;DHT22;24037;49.536;8.500;2023-03-14T00:09:18;10.50;99.90
38241;DHT22;24037;49.536;8.500;2023-03-14T00:11:45;10.60;99.90
38241;DHT22;24037;49.536;8.500;2023-03-14T00:14:11;10.60;99.90
38241;DHT22;24037;49.536;8.500;2023-03-14T00:16:37;10.60;99.90
38241;DHT22;24037;49.536;8.500;2023-03-14T00:19:03;10.60;99.90
38241;DHT22;24037;49.536;8.500;2023-03-14T00:21:30;10.60;99.90
38241;DHT22;24037;49.536;8.500;2023-03-14T00:23:56;10.50;99.90
38241;DHT22;24037;49.536;8.500;2023-03-14T00:26:22;10.60;99.90
38241;DHT22;24037;49.536;8.500;2023-03-14T00:28:52;10.60;99.90
38241;DHT22;24037;49.536;8.500;2023-03-14T00:31:18;10.60;99.90
38241;DHT22;24037;49.536;8.500;2023-03-14T00:33:45;10.60;99.90
38241;DHT22;24037;49.536;8.500;2023-03-14T00:36:13;10.70;99.90
38241;DHT22;24037;49.536;8.500;2023-03-14T00:38:41;10.60;99.90
38241;DHT22;24037;49.536;8.500;2023-03-14T00:41:10;10.50;99.90
38241;DHT22;24037;49.536;8.500;2023-03-14T00:43:37;10.50;99.90
38241;DHT22;24037;49.536;8.500;2023-03-14T00:46:03;10.60;99.90
38241;DHT22;24037;49.536;8.500;2023-03-14T00:48:30;10.60;99.90
38241;DHT22;24037;49.536;8.500;2023-03-14T00:50:57;10.50;99.90
38241;DHT22;24037;49.536;8.500;2023-03-14T00:53:23;10.50;99.90
38241;DHT22;24037;49.536;8.500;2023-03-14T00:55:49;10.50;99.90
38241;DHT22;24037;49.536;8.500;2023-03-14T00:58:17;10.60;99.90
38241;DHT22;24037;49.536;8.500;2023-03-14T01:00:44;10.60;99.90
38241;DHT22;24037;49.536;8.500;2023-03-14T01:03:11;10.60;99.90
38241;DHT22;24037;49.536;8.500;2023-03-14T01:05:38;10.50;99.90
38241;DHT22;24037;49.536;8.500;2023-03-14T01:08:05;10.50;99.90
38241;DHT22;24037;49.536;8.500;2023-03-14T01:10:34;10.40;99.90
38241;DHT22;24037;49.536;8.500;2023-03-14T01:13:04;10.50;99.90
38241;DHT22;24037;49.536;8.500;2023-03-14T01:15:32;10.40;99.90
38241;DHT22;24037;49.536;8.500;2023-03-14T01:17:59;10.50;99.90
38241;DHT22;24037;49.536;8.500;2023-03-14T01:20:25;10.50;99.90
38241;DHT22;24037;49.536;8.500;2023-03-14T01:22:53;10.50;99.90
38241;DHT22;24037;49.536;8.500;2023-03-14T01:25:19;10.60;99.90
38241;DHT22;24037;49.536;8.500;2023-03-14T01:27:46;10.60;99.90
38241;DHT22;24037;49.536;8.500;2023-03-14T01:30:13;10.50;99.90
38241;DHT22;24037;49.536;8.500;2023-03-14T01:32:39;10.50;99.90
38241;DHT22;24037;49.536;8.500;2023-03-14T01:35:06;10.50;99.90
38241;DHT22;24037;49.536;8.500;2023-03-14T01:37:33;10.50;99.90
38241;DHT22;24037;49.536;8.500;2023-03-14T01:40:00;10.50;99.90
38241;DHT22;24037;49.536;8.500;2023-03-14T01:42:27;10.50;99.90
38241;DHT22;24037;49.536;8.500;2023-03-14T01:44:58;10.50;99.90
38241;DHT22;24037;49.536;8.500;2023-03-14T01:47:26;10.60;99.90
38241;DHT22;24037;49.536;8.500;2023-03-14T01:49:57;10.60;99.90
38241;DHT22;24037;49.536;8.500;2023-03-14T01:52:31;10.60;99.90
38241;DHT22;24037;49.536;8.500;2023-03-14T01:55:06;10.60;99.90
38241;DHT22;24037;49.536;8.500;2023-03-14T01:57:38;10.50;99.90
38241;DHT22;24037;49.536;8.500;2023-03-14T02:00:17;10.50;99.90
38241;DHT22;24037;49.536;8.500;2023-03-14T02:02:52;10.40;99.90
38241;DHT22;24037;49.536;8.500;2023-03-14T02:05:23;10.40;99.90
38241;DHT22;24037;49.536;8.500;2023-03-14T02:08:02;10.50;99.90
38241;DHT22;24037;49.536;8.500;2023-03-14T02:10:37;10.50;99.90
38241;DHT22;24037;49.536;8.500;2023-03-14T02:13:05;10.40;99.90
38241;DHT22;24037;49.536;8.500;2023-03-14T02:15:46;10.40;99.90
38241;DHT22;24037;49.536;8.500;2023-03-14T02:18:30;10.50;99.90
38241;DHT22;24037;49.536;8.500;2023-03-14T02:21:47;10.50;99.90
38241;DHT22;24037;49.536;8.500;2023-03-14T02:24:34;10.50;99.90
38241;DHT22;24037;49.536;8.500;2023-03-14T02:29:37;10.50;99.90
38241;DHT22;24037;49.536;8.500;2023-03-14T02:32:06;10.60;99.90
38241;DHT22;24037;49.536;8.500;2023-03-14T02:34:33;10.50;99.90
38241;DHT22;24037;49.536;8.500;2023-03-14T02:37:00;10.60;99.90
38241;DHT22;24037;49.536;8.500;2023-03-14T02:39:36;10.50;99.90
38241;DHT22;24037;49.536;8.500;2023-03-14T02:42:03;10.50;99.90
38241;DHT22;24037;49.536;8.500;2023-03-14T02:44:29;10.60;99.90
38241;DHT22;24037;49.536;8.500;2023-03-14T02:46:56;10.50;99.90
38241;DHT22;24037;49.536;8.500;2023-03-14T02:49:22;10.60;99.90
38241;DHT22;24037;49.536;8.500;2023-03-14T02:51:49;10.60;99.90
38241;DHT22;24037;49.536;8.500;2023-03-14T02:54:15;10.50;99.90
38241;DHT22;24037;49.536;8.500;2023-03-14T02:56:42;10.50;99.90
38241;DHT22;24037;49.536;8.500;2023-03-14T02:59:11;10.50;99.90
38241;DHT22;24037;49.536;8.500;2023-03-14T03:01:45;10.40;99.90
38241;DHT22;24037;49.536;8.500;2023-03-14T03:04:11;10.40;99.90
38241;DHT22;24037;49.536;8.500;2023-03-14T03:06:37;10.30;99.90
38241;DHT22;24037;49.536;8.500;2023-03-14T03:09:04;10.30;99.90
38241;DHT22;24037;49.536;8.500;2023-03-14T03:11:30;10.30;99.90
38241;DHT22;24037;49.536;8.500;2023-03-14T03:13:57;10.30;99.90
38241;DHT22;24037;49.536;8.500;2023-03-14T03:16:24;10.30;99.90
38241;DHT22;24037;49.536;8.500;2023-03-14T03:18:50;10.20;99.90
38241;DHT22;24037;49.536;8.500;2023-03-14T03:21:16;10.30;99.90
38241;DHT22;24037;49.536;8.500;2023-03-14T03:23:43;10.20;99.90
38241;DHT22;24037;49.536;8.500;2023-03-14T03:26:09;10.30;99.90
38241;DHT22;24037;49.536;8.500;2023-03-14T03:28:36;10.30;99.90
38241;DHT22;24037;49.536;8.500;2023-03-14T03:31:07;10.20;99.90
38241;DHT22;24037;49.536;8.500;2023-03-14T03:33:36;10.10;99.90
38241;DHT22;24037;49.536;8.500;2023-03-14T03:36:02;10.10;99.90
38241;DHT22;24037;49.536;8.500;2023-03-14T03:38:33;10.10;99.90
38241;DHT22;24037;49.536;8.500;2023-03-14T03:41:07;10.10;99.90
38241;DHT22;24037;49.536;8.500;2023-03-14T03:43:35;10.20;99.90
38241;DHT22;24037;49.536;8.500;2023-03-14T03:46:04;10.10;99.90
38241;DHT22;24037;49.536;8.500;2023-03-14T03:48:31;10.10;99.90
38241;DHT22;24037;49.536;8.500;2023-03-14T03:51:00;10.10;99.90
38241;DHT22;24037;49.536;8.500;2023-03-14T03:53:26;10.00;99.90
38241;DHT22;24037;49.536;8.500;2023-03-14T03:55:53;10.10;99.90
38241;DHT22;24037;49.536;8.500;2023-03-14T03:58:19;9.90;99.90
38241;DHT22;24037;49.536;8.500;2023-03-14T04:00:45;9.80;99.90
38241;DHT22;24037;49.536;8.500;2023-03-14T04:03:12;9.80;99.90
38241;DHT22;24037;49.536;8.500;2023-03-14T04:05:38;9.70;99.90
38241;DHT22;24037;49.536;8.500;2023-03-14T04:08:08;9.80;99.90
38241;DHT22;24037;49.536;8.500;2023-03-14T04:10:35;9.70;99.90
38241;DHT22;24037;49.536;8.500;2023-03-14T04:13:20;9.60;99.90
38241;DHT22;24037;49.536;8.500;2023-03-14T04:15:52;9.70;99.90
38241;DHT22;24037;49.536;8.500;2023-03-14T04:18:23;9.70;99.90
38241;DHT22;24037;49.536;8.500;2023-03-14T04:20:56;9.80;99.90
38241;DHT22;24037;49.536;8.500;2023-03-14T04:23:27;9.80;99.90
38241;DHT22;24037;49.536;8.500;2023-03-14T04:25:54;9.60;99.90
38241;DHT22;24037;49.536;8.500;2023-03-14T04:28:22;9.50;99.90
38241;DHT22;24037;49.536;8.500;2023-03-14T04:30:48;9.60;99.90
38241;DHT22;24037;49.536;8.500;2023-03-14T04:33:19;9.60;99.90
38241;DHT22;24037;49.536;8.500;2023-03-14T04:35:52;9.50;99.90
38241;DHT22;24037;49.536;8.500;2023-03-14T04:38:19;9.40;99.90
38241;DHT22;24037;49.536;8.500;2023-03-14T04:40:47;9.50;99.90
38241;DHT22;24037;49.536;8.500;2023-03-14T04:43:14;9.40;99.90
38241;DHT22;24037;49.536;8.500;2023-03-14T04:45:48;9.40;99.90
38241;DHT22;24037;49.536;8.500;2023-03-14T04:48:14;9.40;99.90
38241;DHT22;24037;49.536;8.500;2023-03-14T04:50:41;9.50;99.90
38241;DHT22;24037;49.536;8.500;2023-03-14T04:53:07;9.40;99.90
38241;DHT22;24037;49.536;8.500;2023-03-14T04:55:34;9.40;99.90
38241;DHT22;24037;49.536;8.500;2023-03-14T04:58:01;9.50;99.90
38241;DHT22;24037;49.536;8.500;2023-03-14T05:00:28;9.40;99.90
38241;DHT22;24037;49.536;8.500;2023-03-14T05:03:14;9.40;99.90
38241;DHT22;24037;49.536;8.500;2023-03-14T05:05:51;9.50;99.90
38241;DHT22;24037;49.536;8.500;2023-03-14T05:08:39;9.60;99.90
38241;DHT22;24037;49.536;8.500;2023-03-14T05:11:14;9.60;99.90
38241;DHT22;24037;49.536;8.500;2023-03-14T05:14:10;9.60;99.90
38241;DHT22;24037;49.536;8.500;2023-03-14T05:16:54;9.60;99.90
38241;DHT22;24037;49.536;8.500;2023-03-14T05:19:44;9.60;99.90
38241;DHT22;24037;49.536;8.500;2023-03-14T05:22:34;9.50;99.90
38241;DHT22;24037;49.536;8.500;2023-03-14T05:25:12;9.60;99.90
38241;DHT22;24037;49.536;8.500;2023-03-14T05:27:38;9.70;99.90
38241;DHT22;24037;49.536;8.500;2023-03-14T05:30:19;9.70;99.90
38241;DHT22;24037;49.536;8.500;2023-03-14T05:32:45;9.60;99.90
38241;DHT22;24037;49.536;8.500;2023-03-14T05:35:38;9.60;96.70
38241;DHT22;24037;49.536;8.500;2023-03-14T05:38:07;9.70;99.90
38241;DHT22;24037;49.536;8.500;2023-03-14T05:40:47;9.70;99.90
38241;DHT22;24037;49.536;8.500;2023-03-14T05:43:31;9.70;99.90
38241;DHT22;24037;49.536;8.500;2023-03-14T05:46:11;9.80;99.90
38241;DHT22;24037;49.536;8.500;2023-03-14T05:48:58;9.80;73.80
38241;DHT22;24037;49.536;8.500;2023-03-14T05:51:47;10.00;99.90
38241;DHT22;24037;49.536;8.500;2023-03-14T05:54:31;9.90;87.10
38241;DHT22;24037;49.536;8.500;2023-03-14T05:57:18;10.00;86.30
38241;DHT22;24037;49.536;8.500;2023-03-14T06:00:11;9.90;85.90
38241;DHT22;24037;49.536;8.500;2023-03-14T06:02:49;9.90;66.90
38241;DHT22;24037;49.536;8.500;2023-03-14T06:05:22;9.90;53.00
38241;DHT22;24037;49.536;8.500;2023-03-14T06:07:50;10.00;73.70
38241;DHT22;24037;49.536;8.500;2023-03-14T06:10:17;9.90;33.40
38241;DHT22;24037;49.536;8.500;2023-03-14T06:12:43;10.00;60.90
38241;DHT22;24037;49.536;8.500;2023-03-14T06:15:10;10.00;43.80
38241;DHT22;24037;49.536;8.500;2023-03-14T06:17:36;10.00;50.30
38241;DHT22;24037;49.536;8.500;2023-03-14T06:20:08;10.00;29.00
38241;DHT22;24037;49.536;8.500;2023-03-14T06:22:35;10.00;42.10
38241;DHT22;24037;49.536;8.500;2023-03-14T06:25:01;10.10;38.20
38241;DHT22;24037;49.536;8.500;2023-03-14T06:27:29;10.00;20.50
38241;DHT22;24037;49.536;8.500;2023-03-14T06:29:57;10.00;25.90
38241;DHT22;24037;49.536;8.500;2023-03-14T06:32:25;10.10;35.50
38241;DHT22;24037;49.536;8.500;2023-03-14T06:34:53;10.20;39.40
38241;DHT22;24037;49.536;8.500;2023-03-14T06:37:20;10.20;33.40
38241;DHT22;24037;49.536;8.500;2023-03-14T06:39:47;10.20;32.20
38241;DHT22;24037;49.536;8.500;2023-03-14T06:42:33;10.20;20.20
38241;DHT22;24037;49.536;8.500;2023-03-14T06:44:59;10.20;1.00
38241;DHT22;24037;49.536;8.500;2023-03-14T06:47:26;10.20;1.00
38241;DHT22;24037;49.536;8.500;2023-03-14T06:49:52;10.20;1.00
38241;DHT22;24037;49.536;8.500;2023-03-14T06:52:18;10.10;1.00
38241;DHT22;24037;49.536;8.500;2023-03-14T06:54:45;10.10;1.00
38241;DHT22;24037;49.536;8.500;2023-03-14T06:57:11;10.10;1.00
38241;DHT22;24037;49.536;8.500;2023-03-14T06:59:37;10.00;2.10
38241;DHT22;24037;49.536;8.500;2023-03-14T07:02:03;10.10;5.60
38241;DHT22;24037;49.536;8.500;2023-03-14T07:04:29;10.10;1.00
38241;DHT22;24037;49.536;8.500;2023-03-14T07:06:55;10.10;1.00
38241;DHT22;24037;49.536;8.500;2023-03-14T07:09:22;10.20;1.00
38241;DHT22;24037;49.536;8.500;2023-03-14T07:11:53;10.20;1.00
38241;DHT22;24037;49.536;8.500;2023-03-14T07:14:19;10.20;1.00
38241;DHT22;24037;49.536;8.500;2023-03-14T07:16:46;10.30;1.00
38241;DHT22;24037;49.536;8.500;2023-03-14T07:19:12;10.40;1.00
38241;DHT22;24037;49.536;8.500;2023-03-14T07:21:38;10.40;1.00
38241;DHT22;24037;49.536;8.500;2023-03-14T07:24:08;10.50;1.00
38241;DHT22;24037;49.536;8.500;2023-03-14T07:26:35;10.70;1.00
38241;DHT22;24037;49.536;8.500;2023-03-14T07:29:01;10.70;1.00
38241;DHT22;24037;49.536;8.500;2023-03-14T07:31:29;10.70;1.00
38241;DHT22;24037;49.536;8.500;2023-03-14T07:33:56;10.70;1.00
38241;DHT22;24037;49.536;8.500;2023-03-14T07:36:24;10.70;1.00
38241;DHT22;24037;49.536;8.500;2023-03-14T07:38:50;10.80;1.00
38241;DHT22;24037;49.536;8.500;2023-03-14T07:41:31;10.90;1.00
38241;DHT22;24037;49.536;8.500;2023-03-14T07:44:16;10.90;1.00
38241;DHT22;24037;49.536;8.500;2023-03-14T07:46:42;11.10;1.00
38241;DHT22;24037;49.536;8.500;2023-03-14T07:49:08;11.20;1.00
38241;DHT22;24037;49.536;8.500;2023-03-14T07:51:34;11.30;1.00
38241;DHT22;24037;49.536;8.500;2023-03-14T07:54:00;11.40;1.00
38241;DHT22;24037;49.536;8.500;2023-03-14T07:56:26;11.30;1.00
38241;DHT22;24037;49.536;8.500;2023-03-14T07:58:52;11.30;1.00
38241;DHT22;24037;49.536;8.500;2023-03-14T08:01:19;11.30;1.00
38241;DHT22;24037;49.536;8.500;2023-03-14T08:03:45;11.30;1.00
38241;DHT22;24037;49.536;8.500;2023-03-14T08:06:11;11.30;1.00
38241;DHT22;24037;49.536;8.500;2023-03-14T08:08:37;11.30;1.00
38241;DHT22;24037;49.536;8.500;2023-03-14T08:11:05;11.40;1.00
38241;DHT22;24037;49.536;8.500;2023-03-14T08:13:35;11.50;1.00
38241;DHT22;24037;49.536;8.500;2023-03-14T08:16:01;11.60;1.00
38241;DHT22;24037;49.536;8.500;2023-03-14T08:18:28;11.70;1.00
38241;DHT22;24037;49.536;8.500;2023-03-14T08:20:54;11.80;1.00
38241;DHT22;24037;49.536;8.500;2023-03-14T08:23:20;11.80;1.00
38241;DHT22;24037;49.536;8.500;2023-03-14T08:25:48;11.90;1.00
38241;DHT22;24037;49.536;8.500;2023-03-14T08:28:15;12.00;1.00
38241;DHT22;24037;49.536;8.500;2023-03-14T08:30:42;12.20;1.00
38241;DHT22;24037;49.536;8.500;2023-03-14T08:33:08;12.20;1.00
38241;DHT22;24037;49.536;8.500;2023-03-14T08:35:34;12.10;1.00
38241;DHT22;24037;49.536;8.500;2023-03-14T08:38:00;11.90;1.00
38241;DHT22;24037;49.536;8.500;2023-03-14T08:40:27;11.80;1.00
38241;DHT22;24037;49.536;8.500;2023-03-14T08:42:53;11.90;1.00
38241;DHT22;24037;49.536;8.500;2023-03-14T08:45:19;11.90;1.00
38241;DHT22;24037;49.536;8.500;2023-03-14T08:47:46;11.80;1.00
38241;DHT22;24037;49.536;8.500;2023-03-14T08:50:12;11.80;1.00
38241;DHT22;24037;49.536;8.500;2023-03-14T08:52:39;11.80;1.00
38241;DHT22;24037;49.536;8.500;2023-03-14T08:55:08;11.80;1.00
38241;DHT22;24037;49.536;8.500;2023-03-14T08:57:34;11.90;1.00
38241;DHT22;24037;49.536;8.500;2023-03-14T09:00:05;11.90;1.00
38241;DHT22;24037;49.536;8.500;2023-03-14T09:02:36;11.90;1.00
38241;DHT22;24037;49.536;8.500;2023-03-14T09:05:03;11.90;1.00
38241;DHT22;24037;49.536;8.500;2023-03-14T09:07:29;11.90;1.00
38241;DHT22;24037;49.536;8.500;2023-03-14T09:09:55;12.00;1.00
38241;DHT22;24037;49.536;8.500;2023-03-14T09:12:21;12.00;1.00
38241;DHT22;24037;49.536;8.500;2023-03-14T09:14:47;12.00;1.00
38241;DHT22;24037;49.536;8.500;2023-03-14T09:17:13;12.00;1.00
38241;DHT22;24037;49.536;8.500;2023-03-14T09:19:40;12.10;1.00
38241;DHT22;24037;49.536;8.500;2023-03-14T09:22:06;12.10;1.00
38241;DHT22;24037;49.536;8.500;2023-03-14T09:24:32;12.40;1.00
38241;DHT22;24037;49.536;8.500;2023-03-14T09:26:58;12.40;1.00
38241;DHT22;24037;49.536;8.500;2023-03-14T09:29:24;12.20;1.00
38241;DHT22;24037;49.536;8.500;2023-03-14T09:31:51;12.30;1.00
38241;DHT22;24037;49.536;8.500;2023-03-14T09:34:17;12.40;1.00
38241;DHT22;24037;49.536;8.500;2023-03-14T09:36:43;12.40;1.00
38241;DHT22;24037;49.536;8.500;2023-03-14T09:39:11;12.40;1.00
38241;DHT22;24037;49.536;8.500;2023-03-14T09:41:43;12.50;1.00
38241;DHT22;24037;49.536;8.500;2023-03-14T09:44:14;12.60;1.00
38241;DHT22;24037;49.536;8.500;2023-03-14T09:46:45;12.60;1.00
38241;DHT22;24037;49.536;8.500;2023-03-14T09:49:32;12.50;1.00
38241;DHT22;24037;49.536;8.500;2023-03-14T09:52:01;12.20;1.00
38241;DHT22;24037;49.536;8.500;2023-03-14T09:57:04;12.30;1.00
38241;DHT22;24037;49.536;8.500;2023-03-14T09:59:31;12.30;1.00
38241;DHT22;24037;49.536;8.500;2023-03-14T10:02:01;12.20;1.00
38241;DHT22;24037;49.536;8.500;2023-03-14T10:04:28;12.00;1.00
38241;DHT22;24037;49.536;8.500;2023-03-14T10:06:56;12.20;1.00
38241;DHT22;24037;49.536;8.500;2023-03-14T10:09:23;12.10;1.00
38241;DHT22;24037;49.536;8.500;2023-03-14T10:11:56;12.10;1.00
38241;DHT22;24037;49.536;8.500;2023-03-14T10:14:33;12.30;1.00
38241;DHT22;24037;49.536;8.500;2023-03-14T10:17:13;12.40;1.00
38241;DHT22;24037;49.536;8.500;2023-03-14T10:19:58;12.40;1.00
38241;DHT22;24037;49.536;8.500;2023-03-14T10:22:29;12.30;1.00
38241;DHT22;24037;49.536;8.500;2023-03-14T10:24:59;12.30;1.00
38241;DHT22;24037;49.536;8.500;2023-03-14T10:27:31;12.30;1.00
38241;DHT22;24037;49.536;8.500;2023-03-14T10:30:00;12.30;1.00
38241;DHT22;24037;49.536;8.500;2023-03-14T10:32:36;12.20;1.00
38241;DHT22;24037;49.536;8.500;2023-03-14T10:40:27;11.90;1.00
38241;DHT22;24037;49.536;8.500;2023-03-14T10:42:55;11.80;1.00
38241;DHT22;24037;49.536;8.500;2023-03-14T10:45:32;11.90;1.00
38241;DHT22;24037;49.536;8.500;2023-03-14T10:48:05;11.90;1.00
38241;DHT22;24037;49.536;8.500;2023-03-14T10:50:35;11.90;1.00
38241;DHT22;24037;49.536;8.500;2023-03-14T10:53:03;11.90;1.00
38241;DHT22;24037;49.536;8.500;2023-03-14T10:55:44;11.80;1.00
38241;DHT22;24037;49.536;8.500;2023-03-14T10:58:24;11.70;1.00
38241;DHT22;24037;49.536;8.500;2023-03-14T11:04:02;11.40;1.00
38241;DHT22;24037;49.536;8.500;2023-03-14T11:09:18;11.20;1.00
38241;DHT22;24037;49.536;8.500;2023-03-14T11:11:47;11.20;1.00
38241;DHT22;24037;49.536;8.500;2023-03-14T11:14:18;11.20;1.00
38241;DHT22;24037;49.536;8.500;2023-03-14T11:19:50;11.10;7.20
38241;DHT22;24037;49.536;8.500;2023-03-14T11:22:24;11.10;5.80
38241;DHT22;24037;49.536;8.500;2023-03-14T11:27:57;11.00;2.00
38241;DHT22;24037;49.536;8.500;2023-03-14T11:30:39;11.00;3.40
38241;DHT22;24037;49.536;8.500;2023-03-14T11:33:16;11.00;6.40
38241;DHT22;24037;49.536;8.500;2023-03-14T11:35:55;10.90;10.70
38241;DHT22;24037;49.536;8.500;2023-03-14T11:38:43;10.90;20.10
38241;DHT22;24037;49.536;8.500;2023-03-14T11:41:16;10.80;23.90
38241;DHT22;24037;49.536;8.500;2023-03-14T11:43:48;10.80;35.60
38241;DHT22;24037;49.536;8.500;2023-03-14T11:46:16;10.80;49.00
38241;DHT22;24037;49.536;8.500;2023-03-14T11:51:46;10.80;72.80
38241;DHT22;24037;49.536;8.500;2023-03-14T11:56:51;10.90;29.60
38241;DHT22;24037;49.536;8.500;2023-03-14T11:59:24;10.80;31.00
38241;DHT22;24037;49.536;8.500;2023-03-14T12:02:03;10.80;1.00
38241;DHT22;24037;49.536;8.500;2023-03-14T12:07:57;10.70;1.00
38241;DHT22;24037;49.536;8.500;2023-03-14T12:10:35;10.50;1.00
38241;DHT22;24037;49.536;8.500;2023-03-14T12:13:02;10.40;1.00
38241;DHT22;24037;49.536;8.500;2023-03-14T12:15:28;10.50;1.00
38241;DHT22;24037;49.536;8.500;2023-03-14T12:17:55;10.60;1.00
38241;DHT22;24037;49.536;8.500;2023-03-14T12:20:24;10.70;1.00
38241;DHT22;24037;49.536;8.500;2023-03-14T12:23:02;10.70;1.00
38241;DHT22;24037;49.536;8.500;2023-03-14T12:25:32;10.80;1.00
38241;DHT22;24037;49.536;8.500;2023-03-14T12:28:30;10.80;1.00
38241;DHT22;24037;49.536;8.500;2023-03-14T12:34:32;11.00;1.00
38241;DHT22;24037;49.536;8.500;2023-03-14T12:37:17;11.00;1.00
38241;DHT22;24037;49.536;8.500;2023-03-14T12:42:40;10.60;1.00
38241;DHT22;24037;49.536;8.500;2023-03-14T12:45:29;10.60;1.00
38241;DHT22;24037;49.536;8.500;2023-03-14T12:48:07;10.50;1.00
38241;DHT22;24037;49.536;8.500;2023-03-14T12:50:53;10.30;99.90
38241;DHT22;24037;49.536;8.500;2023-03-14T12:59:05;10.40;99.90
38241;DHT22;24037;49.536;8.500;2023-03-14T13:01:33;10.60;99.90
38241;DHT22;24037;49.536;8.500;2023-03-14T13:04:08;10.70;99.90
38241;DHT22;24037;49.536;8.500;2023-03-14T13:06:51;10.80;99.90
38241;DHT22;24037;49.536;8.500;2023-03-14T13:12:02;11.00;99.90
38241;DHT22;24037;49.536;8.500;2023-03-14T13:14:31;10.90;99.90
38241;DHT22;24037;49.536;8.500;2023-03-14T13:17:00;10.70;99.90
38241;DHT22;24037;49.536;8.500;2023-03-14T13:19:29;10.50;99.90
38241;DHT22;24037;49.536;8.500;2023-03-14T13:22:02;10.40;99.90
38241;DHT22;24037;49.536;8.500;2023-03-14T13:24:28;10.40;99.90
38241;DHT22;24037;49.536;8.500;2023-03-14T13:26:56;10.40;99.90
38241;DHT22;24037;49.536;8.500;2023-03-14T13:29:29;10.20;99.90
38241;DHT22;24037;49.536;8.500;2023-03-14T13:31:59;10.30;99.90
38241;DHT22;24037;49.536;8.500;2023-03-14T13:34:28;10.30;99.90
38241;DHT22;24037;49.536;8.500;2023-03-14T13:36:55;10.30;99.90
38241;DHT22;24037;49.536;8.500;2023-03-14T13:39:26;10.30;99.90
38241;DHT22;24037;49.536;8.500;2023-03-14T13:41:57;10.40;99.90
38241;DHT22;24037;49.536;8.500;2023-03-14T13:44:27;10.60;99.90
38241;DHT22;24037;49.536;8.500;2023-03-14T13:46:58;10.80;99.90
38241;DHT22;24037;49.536;8.500;2023-03-14T13:49:26;10.80;99.90
38241;DHT22;24037;49.536;8.500;2023-03-14T13:51:52;10.60;99.90
38241;DHT22;24037;49.536;8.500;2023-03-14T13:54:20;10.40;99.90
38241;DHT22;24037;49.536;8.500;2023-03-14T13:56:46;10.20;99.90
38241;DHT22;24037;49.536;8.500;2023-03-14T14:01:50;9.70;99.90
38241;DHT22;24037;49.536;8.500;2023-03-14T14:04:19;9.70;99.90
38241;DHT22;24037;49.536;8.500;2023-03-14T14:06:53;9.70;99.90
38241;DHT22;24037;49.536;8.500;2023-03-14T14:09:24;9.80;99.90
38241;DHT22;24037;49.536;8.500;2023-03-14T14:11:55;9.90;99.90
38241;DHT22;24037;49.536;8.500;2023-03-14T14:14:33;10.00;99.90
38241;DHT22;24037;49.536;8.500;2023-03-14T14:17:01;10.20;99.90
38241;DHT22;24037;49.536;8.500;2023-03-14T14:19:32;10.30;99.90
38241;DHT22;24037;49.536;8.500;2023-03-14T14:22:00;10.50;99.90
38241;DHT22;24037;49.536;8.500;2023-03-14T14:24:30;10.70;99.90
38241;DHT22;24037;49.536;8.500;2023-03-14T14:29:33;10.50;99.90
38241;DHT22;24037;49.536;8.500;2023-03-14T14:32:11;10.50;99.90
38241;DHT22;24037;49.536;8.500;2023-03-14T14:34:41;10.60;99.90
38241;DHT22;24037;49.536;8.500;2023-03-14T14:37:23;10.50;99.90
38241;DHT22;24037;49.536;8.500;2023-03-14T14:39:52;10.50;99.90
38241;DHT22;24037;49.536;8.500;2023-03-14T14:42:20;10.70;99.90
38241;DHT22;24037;49.536;8.500;2023-03-14T14:44:51;10.60;99.90
38241;DHT22;24037;49.536;8.500;2023-03-14T14:47:20;10.70;99.90
38241;DHT22;24037;49.536;8.500;2023-03-14T14:49:48;10.80;99.90
38241;DHT22;24037;49.536;8.500;2023-03-14T14:52:17;10.70;99.90
38241;DHT22;24037;49.536;8.500;2023-03-14T14:54:57;10.40;99.90
38241;DHT22;24037;49.536;8.500;2023-03-14T14:57:32;10.30;99.90
38241;DHT22;24037;49.536;8.500;2023-03-14T15:00:16;10.30;99.90
38241;DHT22;24037;49.536;8.500;2023-03-14T15:02:48;10.40;99.90
38241;DHT22;24037;49.536;8.500;2023-03-14T15:05:17;10.50;99.90
38241;DHT22;24037;49.536;8.500;2023-03-14T15:07:44;10.40;99.90
38241;DHT22;24037;49.536;8.500;2023-03-14T15:10:12;10.30;99.90
38241;DHT22;24037;49.536;8.500;2023-03-14T15:12:38;10.20;99.90
38241;DHT22;24037;49.536;8.500;2023-03-14T15:15:08;10.10;99.90
38241;DHT22;24037;49.536;8.500;2023-03-14T15:17:35;10.00;99.90
38241;DHT22;24037;49.536;8.500;2023-03-14T15:20:03;10.00;99.90
38241;DHT22;24037;49.536;8.500;2023-03-14T15:22:32;10.00;99.90
38241;DHT22;24037;49.536;8.500;2023-03-14T15:24:58;10.00;99.90
38241;DHT22;24037;49.536;8.500;2023-03-14T15:27:25;10.00;99.90
38241;DHT22;24037;49.536;8.500;2023-03-14T15:29:51;10.00;99.90
38241;DHT22;24037;49.536;8.500;2023-03-14T15:32:17;10.00;99.90
38241;DHT22;24037;49.536;8.500;2023-03-14T15:34:44;10.10;99.90
38241;DHT22;24037;49.536;8.500;2023-03-14T15:37:15;10.10;99.90
38241;DHT22;24037;49.536;8.500;2023-03-14T15:39:42;10.20;99.90
38241;DHT22;24037;49.536;8.500;2023-03-14T15:42:09;10.50;99.90
38241;DHT22;24037;49.536;8.500;2023-03-14T15:44:35;11.00;99.90
38241;DHT22;24037;49.536;8.500;2023-03-14T15:47:01;11.20;99.90
38241;DHT22;24037;49.536;8.500;2023-03-14T15:49:28;11.20;99.90
38241;DHT22;24037;49.536;8.500;2023-03-14T15:51:55;11.30;99.90
38241;DHT22;24037;49.536;8.500;2023-03-14T15:54:22;11.40;99.90
38241;DHT22;24037;49.536;8.500;2023-03-14T15:56:48;11.40;99.90
38241;DHT22;24037;49.536;8.500;2023-03-14T15:59:14;11.30;99.90
38241;DHT22;24037;49.536;8.500;2023-03-14T16:01:41;11.30;99.90
38241;DHT22;24037;49.536;8.500;2023-03-14T16:04:07;11.20;99.90
38241;DHT22;24037;49.536;8.500;2023-03-14T16:06:33;11.10;99.90
38241;DHT22;24037;49.536;8.500;2023-03-14T16:09:01;11.10;99.90
38241;DHT22;24037;49.536;8.500;2023-03-14T16:11:27;11.00;99.90
38241;DHT22;24037;49.536;8.500;2023-03-14T16:13:53;11.00;99.90
38241;DHT22;24037;49.536;8.500;2023-03-14T16:16:19;11.00;99.90
38241;DHT22;24037;49.536;8.500;2023-03-14T16:18:45;10.90;99.90
38241;DHT22;24037;49.536;8.500;2023-03-14T16:21:14;10.80;99.90
38241;DHT22;24037;49.536;8.500;2023-03-14T16:23:41;10.70;99.90
38241;DHT22;24037;49.536;8.500;2023-03-14T16:26:12;10.50;99.90
38241;DHT22;24037;49.536;8.500;2023-03-14T16:28:41;10.30;99.90
38241;DHT22;24037;49.536;8.500;2023-03-14T16:31:09;10.10;99.90
38241;DHT22;24037;49.536;8.500;2023-03-14T16:33:36;10.00;99.90
38241;DHT22;24037;49.536;8.500;2023-03-14T16:36:05;10.00;99.90
38241;DHT22;24037;49.536;8.500;2023-03-14T16:38:34;9.90;99.90
38241;DHT22;24037;49.536;8.500;2023-03-14T16:41:09;9.80;99.90
38241;DHT22;24037;49.536;8.500;2023-03-14T16:43:36;9.80;99.90
38241;DHT22;24037;49.536;8.500;2023-03-14T16:46:03;9.90;99.90
38241;DHT22;24037;49.536;8.500;2023-03-14T16:48:30;9.90;99.90